sensor_id;sensor_type;location;lat;lon;timestamp;P1;durP1;ratioP1;P2;durP2;ratioP2
75009;SDS011;63564;46.840;18.336;2022-12-18T00:01:13;32.63;;;11.90;;
75009;SDS011;63564;46.840;18.336;2022-12-18T00:04:20;36.40;;;13.10;;
75009;SDS011;63564;46.840;18.336;2022-12-18T00:07:22;35.35;;;12.25;;
75009;SDS011;63564;46.840;18.336;2022-12-18T00:10:22;31.90;;;10.73;;
75009;SDS011;63564;46.840;18.336;2022-12-18T00:13:22;32.23;;;10.60;;
75009;SDS011;63564;46.840;18.336;2022-12-18T00:16:24;24.03;;;8.57;;
75009;SDS011;63564;46.840;18.336;2022-12-18T00:19:25;23.58;;;8.60;;
75009;SDS011;63564;46.840;18.336;2022-12-18T00:22:25;37.00;;;13.87;;
75009;SDS011;63564;46.840;18.336;2022-12-18T00:25:26;35.90;;;13.10;;
75009;SDS011;63564;46.840;18.336;2022-12-18T00:28:26;36.40;;;13.97;;
75009;SDS011;63564;46.840;18.336;2022-12-18T00:31:27;36.75;;;12.90;;
75009;SDS011;63564;46.840;18.336;2022-12-18T00:34:27;31.43;;;11.50;;
75009;SDS011;63564;46.840;18.336;2022-12-18T00:37:27;28.73;;;11.90;;
75009;SDS011;63564;46.840;18.336;2022-12-18T00:40:28;22.20;;;8.30;;
75009;SDS011;63564;46.840;18.336;2022-12-18T00:43:28;34.50;;;12.27;;
75009;SDS011;63564;46.840;18.336;2022-12-18T00:46:29;23.20;;;9.55;;
75009;SDS011;63564;46.840;18.336;2022-12-18T00:49:30;29.05;;;10.57;;
75009;SDS011;63564;46.840;18.336;2022-12-18T00:52:30;15.57;;;6.20;;
75009;SDS011;63564;46.840;18.336;2022-12-18T00:55:30;30.40;;;10.30;;
75009;SDS011;63564;46.840;18.336;2022-12-18T00:58:31;37.08;;;12.23;;
75009;SDS011;63564;46.840;18.336;2022-12-18T01:01:31;28.58;;;11.18;;
75009;SDS011;63564;46.840;18.336;2022-12-18T01:04:32;31.00;;;11.53;;
75009;SDS011;63564;46.840;18.336;2022-12-18T01:07:33;33.13;;;12.25;;
75009;SDS011;63564;46.840;18.336;2022-12-18T01:10:33;33.57;;;12.93;;
75009;SDS011;63564;46.840;18.336;2022-12-18T01:13:34;29.80;;;12.10;;
75009;SDS011;63564;46.840;18.336;2022-12-18T01:16:34;33.73;;;13.37;;
75009;SDS011;63564;46.840;18.336;2022-12-18T01:19:35;34.75;;;13.82;;
75009;SDS011;63564;46.840;18.336;2022-12-18T01:22:35;35.97;;;12.87;;
75009;SDS011;63564;46.840;18.336;2022-12-18T01:25:36;32.60;;;12.33;;
75009;SDS011;63564;46.840;18.336;2022-12-18T01:28:37;34.70;;;12.43;;
75009;SDS011;63564;46.840;18.336;2022-12-18T01:31:37;35.53;;;12.70;;
75009;SDS011;63564;46.840;18.336;2022-12-18T01:34:38;31.40;;;10.80;;
75009;SDS011;63564;46.840;18.336;2022-12-18T01:37:38;27.37;;;10.83;;
75009;SDS011;63564;46.840;18.336;2022-12-18T01:40:39;30.40;;;11.43;;
75009;SDS011;63564;46.840;18.336;2022-12-18T01:44:00;29.47;;;11.63;;
75009;SDS011;63564;46.840;18.336;2022-12-18T01:47:00;35.47;;;13.57;;
75009;SDS011;63564;46.840;18.336;2022-12-18T01:50:02;36.75;;;13.65;;
75009;SDS011;63564;46.840;18.336;2022-12-18T01:53:11;32.67;;;11.93;;
75009;SDS011;63564;46.840;18.336;2022-12-18T01:56:12;33.60;;;12.55;;
75009;SDS011;63564;46.840;18.336;2022-12-18T01:59:15;34.28;;;12.27;;
75009;SDS011;63564;46.840;18.336;2022-12-18T02:02:15;29.00;;;10.77;;
75009;SDS011;63564;46.840;18.336;2022-12-18T02:05:18;32.88;;;12.43;;
75009;SDS011;63564;46.840;18.336;2022-12-18T02:08:24;30.50;;;11.90;;
75009;SDS011;63564;46.840;18.336;2022-12-18T02:11:42;34.27;;;12.97;;
75009;SDS011;63564;46.840;18.336;2022-12-18T02:18:05;34.55;;;11.60;;
75009;SDS011;63564;46.840;18.336;2022-12-18T02:27:56;37.78;;;14.32;;
75009;SDS011;63564;46.840;18.336;2022-12-18T02:31:02;37.00;;;12.82;;
75009;SDS011;63564;46.840;18.336;2022-12-18T02:34:04;39.88;;;17.75;;
75009;SDS011;63564;46.840;18.336;2022-12-18T02:37:09;35.25;;;14.10;;
75009;SDS011;63564;46.840;18.336;2022-12-18T02:40:12;39.13;;;14.18;;
75009;SDS011;63564;46.840;18.336;2022-12-18T02:43:15;41.37;;;13.97;;
75009;SDS011;63564;46.840;18.336;2022-12-18T02:49:40;35.03;;;13.05;;
75009;SDS011;63564;46.840;18.336;2022-12-18T02:56:05;35.50;;;12.30;;
75009;SDS011;63564;46.840;18.336;2022-12-18T02:59:13;39.00;;;13.35;;
75009;SDS011;63564;46.840;18.336;2022-12-18T03:02:29;30.17;;;13.00;;
75009;SDS011;63564;46.840;18.336;2022-12-18T03:05:41;37.85;;;13.18;;
75009;SDS011;63564;46.840;18.336;2022-12-18T03:08:47;33.75;;;13.13;;
75009;SDS011;63564;46.840;18.336;2022-12-18T03:11:54;33.45;;;13.65;;
75009;SDS011;63564;46.840;18.336;2022-12-18T03:15:19;34.13;;;12.23;;
75009;SDS011;63564;46.840;18.336;2022-12-18T03:18:32;34.50;;;12.80;;
75009;SDS011;63564;46.840;18.336;2022-12-18T03:21:47;39.03;;;13.00;;
75009;SDS011;63564;46.840;18.336;2022-12-18T03:24:51;38.30;;;12.53;;
75009;SDS011;63564;46.840;18.336;2022-12-18T03:27:53;37.25;;;13.50;;
75009;SDS011;63564;46.840;18.336;2022-12-18T03:30:58;34.72;;;13.27;;
75009;SDS011;63564;46.840;18.336;2022-12-18T03:34:01;49.47;;;22.73;;
75009;SDS011;63564;46.840;18.336;2022-12-18T03:37:06;45.13;;;19.38;;
75009;SDS011;63564;46.840;18.336;2022-12-18T03:40:07;45.70;;;18.85;;
75009;SDS011;63564;46.840;18.336;2022-12-18T03:43:19;41.88;;;15.05;;
75009;SDS011;63564;46.840;18.336;2022-12-18T03:46:30;37.45;;;12.73;;
75009;SDS011;63564;46.840;18.336;2022-12-18T03:49:57;41.47;;;15.68;;
75009;SDS011;63564;46.840;18.336;2022-12-18T03:56:06;42.60;;;17.00;;
75009;SDS011;63564;46.840;18.336;2022-12-18T03:59:07;37.70;;;14.20;;
75009;SDS011;63564;46.840;18.336;2022-12-18T04:02:10;34.20;;;13.35;;
75009;SDS011;63564;46.840;18.336;2022-12-18T04:05:11;36.85;;;13.30;;
75009;SDS011;63564;46.840;18.336;2022-12-18T04:08:13;39.03;;;14.18;;
75009;SDS011;63564;46.840;18.336;2022-12-18T04:11:14;51.63;;;22.90;;
75009;SDS011;63564;46.840;18.336;2022-12-18T04:14:15;52.13;;;22.25;;
75009;SDS011;63564;46.840;18.336;2022-12-18T04:17:15;48.77;;;18.03;;
75009;SDS011;63564;46.840;18.336;2022-12-18T04:20:16;46.07;;;18.30;;
75009;SDS011;63564;46.840;18.336;2022-12-18T04:23:17;41.63;;;16.30;;
75009;SDS011;63564;46.840;18.336;2022-12-18T04:26:17;38.43;;;14.57;;
75009;SDS011;63564;46.840;18.336;2022-12-18T04:29:18;37.17;;;13.30;;
75009;SDS011;63564;46.840;18.336;2022-12-18T04:32:18;42.08;;;14.98;;
75009;SDS011;63564;46.840;18.336;2022-12-18T04:35:18;44.00;;;17.67;;
75009;SDS011;63564;46.840;18.336;2022-12-18T04:38:19;38.20;;;14.93;;
75009;SDS011;63564;46.840;18.336;2022-12-18T04:41:19;41.40;;;15.10;;
75009;SDS011;63564;46.840;18.336;2022-12-18T04:44:20;42.13;;;16.47;;
75009;SDS011;63564;46.840;18.336;2022-12-18T04:47:20;42.80;;;16.27;;
75009;SDS011;63564;46.840;18.336;2022-12-18T04:50:20;43.13;;;14.82;;
75009;SDS011;63564;46.840;18.336;2022-12-18T04:53:21;38.47;;;14.65;;
75009;SDS011;63564;46.840;18.336;2022-12-18T04:56:21;33.03;;;13.50;;
75009;SDS011;63564;46.840;18.336;2022-12-18T04:59:22;37.07;;;15.33;;
75009;SDS011;63564;46.840;18.336;2022-12-18T05:02:22;46.07;;;16.33;;
75009;SDS011;63564;46.840;18.336;2022-12-18T05:05:23;47.80;;;17.92;;
75009;SDS011;63564;46.840;18.336;2022-12-18T05:08:23;42.05;;;17.23;;
75009;SDS011;63564;46.840;18.336;2022-12-18T05:11:24;44.27;;;17.23;;
75009;SDS011;63564;46.840;18.336;2022-12-18T05:14:24;46.30;;;16.70;;
75009;SDS011;63564;46.840;18.336;2022-12-18T05:17:24;48.10;;;17.07;;
75009;SDS011;63564;46.840;18.336;2022-12-18T05:20:25;44.03;;;16.70;;
75009;SDS011;63564;46.840;18.336;2022-12-18T05:23:26;55.25;;;23.73;;
75009;SDS011;63564;46.840;18.336;2022-12-18T05:26:26;57.40;;;23.63;;
75009;SDS011;63564;46.840;18.336;2022-12-18T05:29:27;53.90;;;22.97;;
75009;SDS011;63564;46.840;18.336;2022-12-18T05:32:27;55.60;;;21.37;;
75009;SDS011;63564;46.840;18.336;2022-12-18T05:35:27;56.72;;;22.33;;
75009;SDS011;63564;46.840;18.336;2022-12-18T05:38:28;27.60;;;11.65;;
75009;SDS011;63564;46.840;18.336;2022-12-18T05:41:30;36.67;;;14.97;;
75009;SDS011;63564;46.840;18.336;2022-12-18T05:44:30;48.87;;;17.53;;
75009;SDS011;63564;46.840;18.336;2022-12-18T05:47:30;50.47;;;18.67;;
75009;SDS011;63564;46.840;18.336;2022-12-18T05:50:33;48.88;;;16.48;;
75009;SDS011;63564;46.840;18.336;2022-12-18T05:53:34;49.13;;;16.75;;
75009;SDS011;63564;46.840;18.336;2022-12-18T05:56:36;44.58;;;17.73;;
75009;SDS011;63564;46.840;18.336;2022-12-18T05:59:36;49.30;;;18.40;;
75009;SDS011;63564;46.840;18.336;2022-12-18T06:02:37;50.50;;;18.23;;
75009;SDS011;63564;46.840;18.336;2022-12-18T06:05:44;53.88;;;17.08;;
75009;SDS011;63564;46.840;18.336;2022-12-18T06:08:45;34.10;;;14.47;;
75009;SDS011;63564;46.840;18.336;2022-12-18T06:11:46;16.52;;;8.65;;
75009;SDS011;63564;46.840;18.336;2022-12-18T06:14:47;51.40;;;16.63;;
75009;SDS011;63564;46.840;18.336;2022-12-18T06:17:47;51.20;;;18.30;;
75009;SDS011;63564;46.840;18.336;2022-12-18T06:20:54;51.40;;;18.98;;
75009;SDS011;63564;46.840;18.336;2022-12-18T06:23:58;48.17;;;17.05;;
75009;SDS011;63564;46.840;18.336;2022-12-18T06:26:59;40.60;;;14.60;;
75009;SDS011;63564;46.840;18.336;2022-12-18T06:30:00;49.37;;;17.30;;
75009;SDS011;63564;46.840;18.336;2022-12-18T06:33:00;41.80;;;15.70;;
75009;SDS011;63564;46.840;18.336;2022-12-18T06:36:02;47.93;;;16.43;;
75009;SDS011;63564;46.840;18.336;2022-12-18T06:39:04;47.25;;;17.58;;
75009;SDS011;63564;46.840;18.336;2022-12-18T06:42:05;49.73;;;17.97;;
75009;SDS011;63564;46.840;18.336;2022-12-18T06:45:05;59.83;;;20.50;;
75009;SDS011;63564;46.840;18.336;2022-12-18T06:48:06;52.00;;;20.87;;
75009;SDS011;63564;46.840;18.336;2022-12-18T06:51:06;54.15;;;20.33;;
75009;SDS011;63564;46.840;18.336;2022-12-18T06:54:07;54.38;;;18.38;;
75009;SDS011;63564;46.840;18.336;2022-12-18T06:57:08;44.50;;;18.40;;
75009;SDS011;63564;46.840;18.336;2022-12-18T07:00:08;50.53;;;17.87;;
75009;SDS011;63564;46.840;18.336;2022-12-18T07:03:10;46.58;;;16.73;;
75009;SDS011;63564;46.840;18.336;2022-12-18T07:06:14;48.42;;;16.85;;
75009;SDS011;63564;46.840;18.336;2022-12-18T07:09:16;45.83;;;15.80;;
75009;SDS011;63564;46.840;18.336;2022-12-18T07:12:16;44.17;;;16.93;;
75009;SDS011;63564;46.840;18.336;2022-12-18T07:15:17;33.97;;;12.07;;
75009;SDS011;63564;46.840;18.336;2022-12-18T07:18:17;47.67;;;17.83;;
75009;SDS011;63564;46.840;18.336;2022-12-18T07:21:18;58.07;;;20.57;;
75009;SDS011;63564;46.840;18.336;2022-12-18T07:24:19;48.80;;;18.20;;
75009;SDS011;63564;46.840;18.336;2022-12-18T07:27:19;51.03;;;18.53;;
75009;SDS011;63564;46.840;18.336;2022-12-18T07:30:20;48.60;;;18.17;;
75009;SDS011;63564;46.840;18.336;2022-12-18T07:33:20;49.90;;;17.37;;
75009;SDS011;63564;46.840;18.336;2022-12-18T07:36:21;44.13;;;15.20;;
75009;SDS011;63564;46.840;18.336;2022-12-18T07:39:23;44.05;;;15.88;;
75009;SDS011;63564;46.840;18.336;2022-12-18T07:42:23;49.90;;;17.33;;
75009;SDS011;63564;46.840;18.336;2022-12-18T07:45:33;50.38;;;17.70;;
75009;SDS011;63564;46.840;18.336;2022-12-18T07:48:33;47.90;;;16.03;;
75009;SDS011;63564;46.840;18.336;2022-12-18T07:51:33;49.27;;;17.53;;
75009;SDS011;63564;46.840;18.336;2022-12-18T07:54:34;42.97;;;16.33;;
75009;SDS011;63564;46.840;18.336;2022-12-18T07:57:34;52.47;;;18.00;;
75009;SDS011;63564;46.840;18.336;2022-12-18T08:00:34;48.87;;;18.20;;
75009;SDS011;63564;46.840;18.336;2022-12-18T08:03:35;47.35;;;17.20;;
75009;SDS011;63564;46.840;18.336;2022-12-18T08:06:36;43.97;;;15.33;;
75009;SDS011;63564;46.840;18.336;2022-12-18T08:09:36;42.23;;;16.17;;
75009;SDS011;63564;46.840;18.336;2022-12-18T08:12:37;44.17;;;16.92;;
75009;SDS011;63564;46.840;18.336;2022-12-18T08:15:37;40.85;;;15.68;;
75009;SDS011;63564;46.840;18.336;2022-12-18T08:18:37;37.27;;;14.07;;
75009;SDS011;63564;46.840;18.336;2022-12-18T08:21:38;44.63;;;15.77;;
75009;SDS011;63564;46.840;18.336;2022-12-18T08:24:38;41.00;;;15.67;;
75009;SDS011;63564;46.840;18.336;2022-12-18T08:27:39;36.77;;;14.73;;
75009;SDS011;63564;46.840;18.336;2022-12-18T08:30:39;21.70;;;8.77;;
75009;SDS011;63564;46.840;18.336;2022-12-18T08:33:40;37.20;;;14.35;;
75009;SDS011;63564;46.840;18.336;2022-12-18T08:36:40;43.47;;;15.70;;
75009;SDS011;63564;46.840;18.336;2022-12-18T08:39:41;32.17;;;12.27;;
75009;SDS011;63564;46.840;18.336;2022-12-18T08:42:41;18.90;;;8.70;;
75009;SDS011;63564;46.840;18.336;2022-12-18T08:46:00;29.50;;;11.13;;
75009;SDS011;63564;46.840;18.336;2022-12-18T08:49:00;44.37;;;17.37;;
75009;SDS011;63564;46.840;18.336;2022-12-18T08:52:01;45.87;;;17.23;;
75009;SDS011;63564;46.840;18.336;2022-12-18T08:55:02;45.92;;;16.58;;
75009;SDS011;63564;46.840;18.336;2022-12-18T08:58:03;47.35;;;17.92;;
75009;SDS011;63564;46.840;18.336;2022-12-18T09:01:05;43.27;;;17.37;;
75009;SDS011;63564;46.840;18.336;2022-12-18T09:04:07;46.47;;;17.48;;
75009;SDS011;63564;46.840;18.336;2022-12-18T09:07:08;44.05;;;19.27;;
75009;SDS011;63564;46.840;18.336;2022-12-18T09:10:09;39.47;;;16.53;;
75009;SDS011;63564;46.840;18.336;2022-12-18T09:13:12;48.63;;;18.75;;
75009;SDS011;63564;46.840;18.336;2022-12-18T09:16:14;41.75;;;15.50;;
75009;SDS011;63564;46.840;18.336;2022-12-18T09:19:14;43.53;;;17.40;;
75009;SDS011;63564;46.840;18.336;2022-12-18T09:22:15;40.10;;;16.55;;
75009;SDS011;63564;46.840;18.336;2022-12-18T09:25:15;44.83;;;17.23;;
75009;SDS011;63564;46.840;18.336;2022-12-18T09:28:17;42.47;;;17.37;;
75009;SDS011;63564;46.840;18.336;2022-12-18T09:31:19;46.10;;;18.42;;
75009;SDS011;63564;46.840;18.336;2022-12-18T09:34:21;37.03;;;14.70;;
75009;SDS011;63564;46.840;18.336;2022-12-18T09:37:21;37.50;;;15.60;;
75009;SDS011;63564;46.840;18.336;2022-12-18T09:40:23;37.73;;;15.47;;
75009;SDS011;63564;46.840;18.336;2022-12-18T09:43:26;39.50;;;16.55;;
75009;SDS011;63564;46.840;18.336;2022-12-18T09:46:43;35.38;;;15.25;;
75009;SDS011;63564;46.840;18.336;2022-12-18T09:49:47;33.72;;;13.65;;
75009;SDS011;63564;46.840;18.336;2022-12-18T09:52:51;39.80;;;17.73;;
75009;SDS011;63564;46.840;18.336;2022-12-18T09:55:54;32.00;;;12.38;;
75009;SDS011;63564;46.840;18.336;2022-12-18T09:58:59;27.27;;;10.07;;
75009;SDS011;63564;46.840;18.336;2022-12-18T10:02:17;32.47;;;13.90;;
75009;SDS011;63564;46.840;18.336;2022-12-18T10:05:36;31.42;;;13.65;;
75009;SDS011;63564;46.840;18.336;2022-12-18T10:08:49;37.50;;;14.27;;
75009;SDS011;63564;46.840;18.336;2022-12-18T10:15:24;38.83;;;16.27;;
75009;SDS011;63564;46.840;18.336;2022-12-18T10:22:38;34.63;;;14.35;;
75009;SDS011;63564;46.840;18.336;2022-12-18T10:25:24;41.20;;;17.88;;
75009;SDS011;63564;46.840;18.336;2022-12-18T10:28:29;40.55;;;16.38;;
75009;SDS011;63564;46.840;18.336;2022-12-18T10:31:31;35.53;;;14.67;;
75009;SDS011;63564;46.840;18.336;2022-12-18T10:34:31;36.53;;;14.63;;
75009;SDS011;63564;46.840;18.336;2022-12-18T10:37:32;36.00;;;15.57;;
75009;SDS011;63564;46.840;18.336;2022-12-18T10:40:32;37.47;;;14.93;;
75009;SDS011;63564;46.840;18.336;2022-12-18T10:43:47;33.00;;;15.68;;
75009;SDS011;63564;46.840;18.336;2022-12-18T10:46:51;37.00;;;16.17;;
75009;SDS011;63564;46.840;18.336;2022-12-18T10:49:55;36.58;;;16.35;;
75009;SDS011;63564;46.840;18.336;2022-12-18T10:52:57;41.38;;;18.05;;
75009;SDS011;63564;46.840;18.336;2022-12-18T10:56:03;38.92;;;18.98;;
75009;SDS011;63564;46.840;18.336;2022-12-18T10:59:06;38.22;;;16.65;;
75009;SDS011;63564;46.840;18.336;2022-12-18T11:02:23;39.75;;;16.30;;
75009;SDS011;63564;46.840;18.336;2022-12-18T11:05:34;40.83;;;17.73;;
75009;SDS011;63564;46.840;18.336;2022-12-18T11:08:37;41.90;;;19.20;;
75009;SDS011;63564;46.840;18.336;2022-12-18T11:11:37;35.15;;;15.50;;
75009;SDS011;63564;46.840;18.336;2022-12-18T11:17:41;42.42;;;20.17;;
75009;SDS011;63564;46.840;18.336;2022-12-18T11:20:42;40.08;;;17.77;;
75009;SDS011;63564;46.840;18.336;2022-12-18T11:23:51;42.75;;;19.50;;
75009;SDS011;63564;46.840;18.336;2022-12-18T11:26:53;43.67;;;18.60;;
75009;SDS011;63564;46.840;18.336;2022-12-18T11:30:07;60.45;;;24.30;;
75009;SDS011;63564;46.840;18.336;2022-12-18T11:33:14;37.67;;;16.77;;
75009;SDS011;63564;46.840;18.336;2022-12-18T11:36:19;35.90;;;15.32;;
75009;SDS011;63564;46.840;18.336;2022-12-18T11:42:32;34.63;;;14.57;;
75009;SDS011;63564;46.840;18.336;2022-12-18T11:49:15;36.35;;;14.50;;
75009;SDS011;63564;46.840;18.336;2022-12-18T11:52:27;32.67;;;13.73;;
75009;SDS011;63564;46.840;18.336;2022-12-18T11:55:39;29.65;;;12.55;;
75009;SDS011;63564;46.840;18.336;2022-12-18T11:58:50;31.63;;;13.70;;
75009;SDS011;63564;46.840;18.336;2022-12-18T12:08:56;33.50;;;12.35;;
75009;SDS011;63564;46.840;18.336;2022-12-18T12:15:21;32.53;;;12.80;;
75009;SDS011;63564;46.840;18.336;2022-12-18T12:21:47;28.60;;;11.43;;
75009;SDS011;63564;46.840;18.336;2022-12-18T12:28:43;30.23;;;12.85;;
75009;SDS011;63564;46.840;18.336;2022-12-18T12:35:08;30.60;;;12.18;;
75009;SDS011;63564;46.840;18.336;2022-12-18T12:38:31;28.42;;;12.27;;
75009;SDS011;63564;46.840;18.336;2022-12-18T12:41:36;27.30;;;12.07;;
75009;SDS011;63564;46.840;18.336;2022-12-18T12:44:57;26.33;;;10.73;;
75009;SDS011;63564;46.840;18.336;2022-12-18T12:48:01;31.65;;;12.45;;
75009;SDS011;63564;46.840;18.336;2022-12-18T12:51:08;27.88;;;11.52;;
75009;SDS011;63564;46.840;18.336;2022-12-18T12:54:17;24.40;;;10.60;;
75009;SDS011;63564;46.840;18.336;2022-12-18T12:57:30;27.27;;;11.20;;
75009;SDS011;63564;46.840;18.336;2022-12-18T13:00:41;28.20;;;11.70;;
75009;SDS011;63564;46.840;18.336;2022-12-18T13:07:12;30.52;;;11.50;;
75009;SDS011;63564;46.840;18.336;2022-12-18T13:13:24;27.27;;;12.10;;
75009;SDS011;63564;46.840;18.336;2022-12-18T13:16:25;30.58;;;12.55;;
75009;SDS011;63564;46.840;18.336;2022-12-18T13:19:27;31.45;;;12.45;;
75009;SDS011;63564;46.840;18.336;2022-12-18T13:22:29;31.35;;;12.02;;
75009;SDS011;63564;46.840;18.336;2022-12-18T13:25:39;31.40;;;12.57;;
75009;SDS011;63564;46.840;18.336;2022-12-18T13:34:46;29.23;;;12.70;;
75009;SDS011;63564;46.840;18.336;2022-12-18T13:37:53;32.30;;;13.13;;
75009;SDS011;63564;46.840;18.336;2022-12-18T13:40:54;35.42;;;13.57;;
75009;SDS011;63564;46.840;18.336;2022-12-18T13:43:57;38.20;;;16.53;;
75009;SDS011;63564;46.840;18.336;2022-12-18T13:50:25;38.95;;;17.92;;
75009;SDS011;63564;46.840;18.336;2022-12-18T13:53:27;40.33;;;17.50;;
75009;SDS011;63564;46.840;18.336;2022-12-18T13:56:31;40.47;;;17.73;;
75009;SDS011;63564;46.840;18.336;2022-12-18T13:59:37;47.05;;;19.92;;
75009;SDS011;63564;46.840;18.336;2022-12-18T14:02:38;51.55;;;22.40;;
75009;SDS011;63564;46.840;18.336;2022-12-18T14:05:40;46.25;;;18.15;;
75009;SDS011;63564;46.840;18.336;2022-12-18T14:08:45;42.83;;;17.67;;
75009;SDS011;63564;46.840;18.336;2022-12-18T14:11:47;42.05;;;17.70;;
75009;SDS011;63564;46.840;18.336;2022-12-18T14:14:49;38.73;;;16.27;;
75009;SDS011;63564;46.840;18.336;2022-12-18T14:17:52;38.45;;;16.02;;
75009;SDS011;63564;46.840;18.336;2022-12-18T14:20:55;39.17;;;15.90;;
75009;SDS011;63564;46.840;18.336;2022-12-18T14:24:05;38.40;;;15.25;;
75009;SDS011;63564;46.840;18.336;2022-12-18T14:27:20;36.17;;;15.20;;
75009;SDS011;63564;46.840;18.336;2022-12-18T14:33:24;37.83;;;15.10;;
75009;SDS011;63564;46.840;18.336;2022-12-18T14:36:27;38.90;;;15.07;;
75009;SDS011;63564;46.840;18.336;2022-12-18T14:39:28;39.45;;;15.68;;
75009;SDS011;63564;46.840;18.336;2022-12-18T14:42:29;38.43;;;15.87;;
75009;SDS011;63564;46.840;18.336;2022-12-18T14:45:36;44.20;;;18.90;;
75009;SDS011;63564;46.840;18.336;2022-12-18T14:48:41;41.63;;;17.27;;
75009;SDS011;63564;46.840;18.336;2022-12-18T14:51:47;44.20;;;18.52;;
75009;SDS011;63564;46.840;18.336;2022-12-18T14:54:58;44.90;;;19.20;;
75009;SDS011;63564;46.840;18.336;2022-12-18T14:57:58;48.33;;;18.85;;
75009;SDS011;63564;46.840;18.336;2022-12-18T15:00:59;50.20;;;19.87;;
75009;SDS011;63564;46.840;18.336;2022-12-18T15:04:00;56.60;;;24.13;;
75009;SDS011;63564;46.840;18.336;2022-12-18T15:07:03;55.63;;;21.50;;
75009;SDS011;63564;46.840;18.336;2022-12-18T15:10:10;49.65;;;19.27;;
75009;SDS011;63564;46.840;18.336;2022-12-18T15:13:20;43.95;;;16.98;;
75009;SDS011;63564;46.840;18.336;2022-12-18T15:16:23;50.33;;;18.63;;
75009;SDS011;63564;46.840;18.336;2022-12-18T15:19:26;48.28;;;18.70;;
75009;SDS011;63564;46.840;18.336;2022-12-18T15:22:41;45.47;;;18.17;;
75009;SDS011;63564;46.840;18.336;2022-12-18T15:25:42;43.30;;;17.85;;
75009;SDS011;63564;46.840;18.336;2022-12-18T15:28:44;50.63;;;20.30;;
75009;SDS011;63564;46.840;18.336;2022-12-18T15:31:59;47.00;;;17.93;;
75009;SDS011;63564;46.840;18.336;2022-12-18T15:38:15;39.42;;;15.20;;
75009;SDS011;63564;46.840;18.336;2022-12-18T15:41:17;42.70;;;16.30;;
75009;SDS011;63564;46.840;18.336;2022-12-18T15:44:23;43.90;;;16.05;;
75009;SDS011;63564;46.840;18.336;2022-12-18T15:47:25;40.58;;;15.27;;
75009;SDS011;63564;46.840;18.336;2022-12-18T15:50:26;41.57;;;15.37;;
75009;SDS011;63564;46.840;18.336;2022-12-18T15:53:28;42.65;;;14.82;;
75009;SDS011;63564;46.840;18.336;2022-12-18T15:56:31;39.22;;;14.52;;
75009;SDS011;63564;46.840;18.336;2022-12-18T15:59:51;43.90;;;16.10;;
75009;SDS011;63564;46.840;18.336;2022-12-18T16:02:54;46.17;;;16.55;;
75009;SDS011;63564;46.840;18.336;2022-12-18T16:05:55;41.85;;;16.80;;
75009;SDS011;63564;46.840;18.336;2022-12-18T16:08:55;37.90;;;14.83;;
75009;SDS011;63564;46.840;18.336;2022-12-18T16:11:59;38.33;;;14.77;;
75009;SDS011;63564;46.840;18.336;2022-12-18T16:15:00;42.90;;;14.63;;
75009;SDS011;63564;46.840;18.336;2022-12-18T16:18:00;40.47;;;15.10;;
75009;SDS011;63564;46.840;18.336;2022-12-18T16:21:01;46.50;;;16.80;;
75009;SDS011;63564;46.840;18.336;2022-12-18T16:24:02;41.55;;;16.33;;
75009;SDS011;63564;46.840;18.336;2022-12-18T16:27:10;41.78;;;15.65;;
75009;SDS011;63564;46.840;18.336;2022-12-18T16:30:14;54.38;;;19.33;;
75009;SDS011;63564;46.840;18.336;2022-12-18T16:33:16;47.03;;;18.98;;
75009;SDS011;63564;46.840;18.336;2022-12-18T16:36:17;52.95;;;20.38;;
75009;SDS011;63564;46.840;18.336;2022-12-18T16:39:18;49.77;;;18.90;;
75009;SDS011;63564;46.840;18.336;2022-12-18T16:42:19;51.58;;;20.05;;
75009;SDS011;63564;46.840;18.336;2022-12-18T16:45:22;47.40;;;19.00;;
75009;SDS011;63564;46.840;18.336;2022-12-18T16:48:22;43.27;;;16.97;;
75009;SDS011;63564;46.840;18.336;2022-12-18T16:51:23;45.60;;;16.60;;
75009;SDS011;63564;46.840;18.336;2022-12-18T16:54:25;44.55;;;17.58;;
75009;SDS011;63564;46.840;18.336;2022-12-18T16:57:29;47.20;;;17.73;;
75009;SDS011;63564;46.840;18.336;2022-12-18T17:00:30;46.97;;;17.92;;
75009;SDS011;63564;46.840;18.336;2022-12-18T17:03:31;49.47;;;19.77;;
75009;SDS011;63564;46.840;18.336;2022-12-18T17:06:32;52.87;;;20.10;;
75009;SDS011;63564;46.840;18.336;2022-12-18T17:09:35;46.42;;;19.08;;
75009;SDS011;63564;46.840;18.336;2022-12-18T17:12:36;49.35;;;17.95;;
75009;SDS011;63564;46.840;18.336;2022-12-18T17:15:37;56.75;;;20.15;;
75009;SDS011;63564;46.840;18.336;2022-12-18T17:18:43;56.35;;;18.95;;
75009;SDS011;63564;46.840;18.336;2022-12-18T17:21:46;51.25;;;19.15;;
75009;SDS011;63564;46.840;18.336;2022-12-18T17:24:48;51.80;;;17.75;;
75009;SDS011;63564;46.840;18.336;2022-12-18T17:27:49;47.57;;;17.63;;
75009;SDS011;63564;46.840;18.336;2022-12-18T17:30:51;56.65;;;20.77;;
75009;SDS011;63564;46.840;18.336;2022-12-18T17:33:52;55.60;;;20.98;;
75009;SDS011;63564;46.840;18.336;2022-12-18T17:36:54;55.47;;;21.20;;
75009;SDS011;63564;46.840;18.336;2022-12-18T17:39:55;58.50;;;22.42;;
75009;SDS011;63564;46.840;18.336;2022-12-18T17:42:57;59.50;;;21.52;;
75009;SDS011;63564;46.840;18.336;2022-12-18T17:46:04;57.03;;;20.33;;
75009;SDS011;63564;46.840;18.336;2022-12-18T17:49:06;58.42;;;20.70;;
75009;SDS011;63564;46.840;18.336;2022-12-18T17:52:06;58.83;;;20.55;;
75009;SDS011;63564;46.840;18.336;2022-12-18T17:55:07;56.88;;;21.08;;
75009;SDS011;63564;46.840;18.336;2022-12-18T17:58:09;58.75;;;21.73;;
75009;SDS011;63564;46.840;18.336;2022-12-18T18:01:13;57.87;;;24.13;;
75009;SDS011;63564;46.840;18.336;2022-12-18T18:04:16;64.10;;;24.60;;
75009;SDS011;63564;46.840;18.336;2022-12-18T18:07:16;63.77;;;26.33;;
75009;SDS011;63564;46.840;18.336;2022-12-18T18:10:17;64.35;;;27.15;;
75009;SDS011;63564;46.840;18.336;2022-12-18T18:13:19;65.00;;;27.93;;
75009;SDS011;63564;46.840;18.336;2022-12-18T18:16:42;72.30;;;28.25;;
75009;SDS011;63564;46.840;18.336;2022-12-18T18:19:44;69.28;;;27.55;;
75009;SDS011;63564;46.840;18.336;2022-12-18T18:22:45;58.65;;;23.70;;
75009;SDS011;63564;46.840;18.336;2022-12-18T18:25:46;56.30;;;20.73;;
75009;SDS011;63564;46.840;18.336;2022-12-18T18:28:47;57.10;;;20.77;;
75009;SDS011;63564;46.840;18.336;2022-12-18T18:31:48;50.95;;;17.83;;
75009;SDS011;63564;46.840;18.336;2022-12-18T18:34:49;46.70;;;17.30;;
75009;SDS011;63564;46.840;18.336;2022-12-18T18:37:50;42.97;;;16.45;;
75009;SDS011;63564;46.840;18.336;2022-12-18T18:41:01;44.10;;;16.13;;
75009;SDS011;63564;46.840;18.336;2022-12-18T18:44:03;47.65;;;15.50;;
75009;SDS011;63564;46.840;18.336;2022-12-18T18:47:05;44.95;;;15.77;;
75009;SDS011;63564;46.840;18.336;2022-12-18T18:50:05;47.77;;;15.53;;
75009;SDS011;63564;46.840;18.336;2022-12-18T18:53:07;46.70;;;16.30;;
75009;SDS011;63564;46.840;18.336;2022-12-18T18:56:08;42.83;;;16.10;;